sensor_id;sensor_type;location;lat;lon;timestamp;pressure;altitude;pressure_sealevel;temperature;humidity
52949;BME280;38812;50.942;3.644;2023-02-12T00:02:18;103838.88;;;6.67;100.00
52949;BME280;38812;50.942;3.644;2023-02-12T00:04:43;103833.66;;;6.67;100.00
52949;BME280;38812;50.942;3.644;2023-02-12T00:07:09;103827.53;;;6.67;100.00
52949;BME280;38812;50.942;3.644;2023-02-12T00:09:35;103831.72;;;6.63;100.00
52949;BME280;38812;50.942;3.644;2023-02-12T00:12:01;103830.72;;;6.60;100.00
52949;BME280;38812;50.942;3.644;2023-02-12T00:14:27;103838.53;;;6.60;100.00
52949;BME280;38812;50.942;3.644;2023-02-12T00:16:52;103832.28;;;6.56;100.00
52949;BME280;38812;50.942;3.644;2023-02-12T00:19:18;103846.38;;;6.60;100.00
52949;BME280;38812;50.942;3.644;2023-02-12T00:21:43;103843.69;;;6.58;100.00
52949;BME280;38812;50.942;3.644;2023-02-12T00:24:08;103839.50;;;6.62;100.00
52949;BME280;38812;50.942;3.644;2023-02-12T00:26:35;103835.94;;;6.60;100.00
52949;BME280;38812;50.942;3.644;2023-02-12T00:29:00;103835.88;;;6.58;100.00
52949;BME280;38812;50.942;3.644;2023-02-12T00:31:27;103821.53;;;6.48;100.00
52949;BME280;38812;50.942;3.644;2023-02-12T00:33:53;103822.44;;;6.49;100.00
52949;BME280;38812;50.942;3.644;2023-02-12T00:36:22;103837.38;;;6.53;100.00
52949;BME280;38812;50.942;3.644;2023-02-12T00:38:50;103842.53;;;6.51;100.00
52949;BME280;38812;50.942;3.644;2023-02-12T00:41:16;103831.00;;;6.46;100.00
52949;BME280;38812;50.942;3.644;2023-02-12T00:43:42;103828.41;;;6.46;100.00
52949;BME280;38812;50.942;3.644;2023-02-12T00:46:07;103830.94;;;6.45;100.00
52949;BME280;38812;50.942;3.644;2023-02-12T00:48:34;103839.00;;;6.49;100.00
52949;BME280;38812;50.942;3.644;2023-02-12T00:51:00;103834.38;;;6.44;100.00
52949;BME280;38812;50.942;3.644;2023-02-12T00:53:25;103838.03;;;6.47;100.00
52949;BME280;38812;50.942;3.644;2023-02-12T00:55:51;103835.28;;;6.44;100.00
52949;BME280;38812;50.942;3.644;2023-02-12T00:58:16;103837.97;;;6.46;100.00
52949;BME280;38812;50.942;3.644;2023-02-12T01:00:42;103834.31;;;6.42;100.00
52949;BME280;38812;50.942;3.644;2023-02-12T01:03:08;103838.56;;;6.40;100.00
52949;BME280;38812;50.942;3.644;2023-02-12T01:05:34;103840.50;;;6.44;100.00
52949;BME280;38812;50.942;3.644;2023-02-12T01:07:59;103841.88;;;6.36;100.00
52949;BME280;38812;50.942;3.644;2023-02-12T01:10:25;103844.28;;;6.32;100.00
52949;BME280;38812;50.942;3.644;2023-02-12T01:12:50;103849.16;;;6.43;100.00
52949;BME280;38812;50.942;3.644;2023-02-12T01:15:16;103841.06;;;6.37;100.00
52949;BME280;38812;50.942;3.644;2023-02-12T01:17:42;103842.56;;;6.32;100.00
52949;BME280;38812;50.942;3.644;2023-02-12T01:20:11;103839.88;;;6.31;100.00
52949;BME280;38812;50.942;3.644;2023-02-12T01:22:38;103843.66;;;6.37;100.00
52949;BME280;38812;50.942;3.644;2023-02-12T01:25:04;103840.38;;;6.41;100.00
52949;BME280;38812;50.942;3.644;2023-02-12T01:27:30;103845.44;;;6.38;100.00
52949;BME280;38812;50.942;3.644;2023-02-12T01:29:55;103841.31;;;6.43;100.00
52949;BME280;38812;50.942;3.644;2023-02-12T01:32:21;103846.19;;;6.36;100.00
52949;BME280;38812;50.942;3.644;2023-02-12T01:34:46;103843.72;;;6.39;100.00
52949;BME280;38812;50.942;3.644;2023-02-12T01:37:12;103848.06;;;6.38;100.00
52949;BME280;38812;50.942;3.644;2023-02-12T01:39:37;103840.91;;;6.34;100.00
52949;BME280;38812;50.942;3.644;2023-02-12T01:42:03;103839.94;;;6.32;100.00
52949;BME280;38812;50.942;3.644;2023-02-12T01:44:31;103833.22;;;6.37;100.00
52949;BME280;38812;50.942;3.644;2023-02-12T01:47:04;103834.31;;;6.42;100.00
52949;BME280;38812;50.942;3.644;2023-02-12T01:49:36;103836.63;;;6.56;100.00
52949;BME280;38812;50.942;3.644;2023-02-12T01:52:13;103828.47;;;6.48;100.00
52949;BME280;38812;50.942;3.644;2023-02-12T01:54:41;103835.53;;;6.50;100.00
52949;BME280;38812;50.942;3.644;2023-02-12T01:57:08;103830.13;;;6.46;100.00
52949;BME280;38812;50.942;3.644;2023-02-12T01:59:36;103828.06;;;6.39;100.00
52949;BME280;38812;50.942;3.644;2023-02-12T02:02:04;103829.03;;;6.41;100.00
52949;BME280;38812;50.942;3.644;2023-02-12T02:04:37;103819.19;;;6.35;100.00
52949;BME280;38812;50.942;3.644;2023-02-12T02:07:05;103830.56;;;6.57;100.00
52949;BME280;38812;50.942;3.644;2023-02-12T02:09:35;103831.88;;;6.66;100.00
52949;BME280;38812;50.942;3.644;2023-02-12T02:12:02;103830.44;;;6.74;100.00
52949;BME280;38812;50.942;3.644;2023-02-12T02:14:46;103824.66;;;6.61;100.00
52949;BME280;38812;50.942;3.644;2023-02-12T02:28:04;103830.44;;;6.53;100.00
52949;BME280;38812;50.942;3.644;2023-02-12T02:36:45;103814.63;;;6.50;100.00
52949;BME280;38812;50.942;3.644;2023-02-12T02:44:49;103814.78;;;6.95;100.00
52949;BME280;38812;50.942;3.644;2023-02-12T02:47:23;103814.69;;;6.92;100.00
52949;BME280;38812;50.942;3.644;2023-02-12T02:50:04;103823.56;;;6.97;100.00
52949;BME280;38812;50.942;3.644;2023-02-12T02:52:37;103806.88;;;6.94;100.00
52949;BME280;38812;50.942;3.644;2023-02-12T02:55:07;103808.91;;;7.01;100.00
52949;BME280;38812;50.942;3.644;2023-02-12T02:57:37;103817.50;;;6.98;100.00
52949;BME280;38812;50.942;3.644;2023-02-12T03:00:13;103809.31;;;6.89;100.00
52949;BME280;38812;50.942;3.644;2023-02-12T03:02:44;103816.75;;;6.80;100.00
52949;BME280;38812;50.942;3.644;2023-02-12T03:05:25;103818.75;;;6.85;100.00
52949;BME280;38812;50.942;3.644;2023-02-12T03:07:58;103810.44;;;6.75;100.00
52949;BME280;38812;50.942;3.644;2023-02-12T03:10:33;103822.44;;;6.70;100.00
52949;BME280;38812;50.942;3.644;2023-02-12T03:13:06;103817.66;;;6.60;100.00
52949;BME280;38812;50.942;3.644;2023-02-12T03:15:45;103819.16;;;6.54;100.00
52949;BME280;38812;50.942;3.644;2023-02-12T03:18:23;103809.22;;;6.46;100.00
52949;BME280;38812;50.942;3.644;2023-02-12T03:20:54;103820.63;;;6.48;100.00
52949;BME280;38812;50.942;3.644;2023-02-12T03:23:27;103814.63;;;6.50;100.00
52949;BME280;38812;50.942;3.644;2023-02-12T03:25:56;103821.19;;;6.41;100.00
52949;BME280;38812;50.942;3.644;2023-02-12T03:28:29;103818.22;;;6.33;100.00
52949;BME280;38812;50.942;3.644;2023-02-12T03:31:23;103828.34;;;6.45;100.00
52949;BME280;38812;50.942;3.644;2023-02-12T03:36:50;103811.91;;;6.28;100.00
52949;BME280;38812;50.942;3.644;2023-02-12T03:42:45;103820.84;;;6.33;100.00
52949;BME280;38812;50.942;3.644;2023-02-12T03:48:55;103814.59;;;6.30;100.00
52949;BME280;38812;50.942;3.644;2023-02-12T03:51:37;103805.41;;;6.18;100.00
52949;BME280;38812;50.942;3.644;2023-02-12T03:54:05;103814.81;;;6.15;100.00
52949;BME280;38812;50.942;3.644;2023-02-12T03:57:40;103815.66;;;6.14;100.00
52949;BME280;38812;50.942;3.644;2023-02-12T03:59:34;103807.13;;;6.18;100.00
52949;BME280;38812;50.942;3.644;2023-02-12T04:02:01;103813.19;;;6.17;100.00
52949;BME280;38812;50.942;3.644;2023-02-12T04:04:26;103805.75;;;6.07;100.00
52949;BME280;38812;50.942;3.644;2023-02-12T04:06:53;103812.91;;;6.11;100.00
52949;BME280;38812;50.942;3.644;2023-02-12T04:09:19;103817.22;;;6.10;100.00
52949;BME280;38812;50.942;3.644;2023-02-12T04:14:26;103819.50;;;6.03;100.00
52949;BME280;38812;50.942;3.644;2023-02-12T04:17:05;103803.56;;;5.97;100.00
52949;BME280;38812;50.942;3.644;2023-02-12T04:19:51;103822.03;;;6.01;100.00
52949;BME280;38812;50.942;3.644;2023-02-12T04:27:36;103817.63;;;6.19;100.00
52949;BME280;38812;50.942;3.644;2023-02-12T04:30:29;103831.31;;;6.14;100.00
52949;BME280;38812;50.942;3.644;2023-02-12T04:32:59;103830.34;;;6.12;100.00
52949;BME280;38812;50.942;3.644;2023-02-12T04:35:35;103830.34;;;6.12;100.00
52949;BME280;38812;50.942;3.644;2023-02-12T04:38:16;103824.97;;;6.09;100.00
52949;BME280;38812;50.942;3.644;2023-02-12T04:40:43;103818.53;;;6.20;100.00
52949;BME280;38812;50.942;3.644;2023-02-12T04:43:09;103823.91;;;6.23;100.00
52949;BME280;38812;50.942;3.644;2023-02-12T04:45:36;103825.41;;;6.18;100.00
52949;BME280;38812;50.942;3.644;2023-02-12T04:48:02;103820.88;;;6.14;100.00
52949;BME280;38812;50.942;3.644;2023-02-12T04:50:37;103836.25;;;6.27;100.00
52949;BME280;38812;50.942;3.644;2023-02-12T04:53:03;103813.69;;;6.29;100.00
52949;BME280;38812;50.942;3.644;2023-02-12T04:55:29;103825.94;;;6.30;100.00
52949;BME280;38812;50.942;3.644;2023-02-12T04:57:54;103818.88;;;6.28;100.00
52949;BME280;38812;50.942;3.644;2023-02-12T05:00:19;103831.16;;;6.30;100.00
52949;BME280;38812;50.942;3.644;2023-02-12T05:02:45;103827.84;;;6.34;100.00
52949;BME280;38812;50.942;3.644;2023-02-12T05:05:10;103825.31;;;6.36;100.00
52949;BME280;38812;50.942;3.644;2023-02-12T05:07:36;103818.91;;;6.29;100.00
52949;BME280;38812;50.942;3.644;2023-02-12T05:10:02;103821.97;;;6.19;100.00
52949;BME280;38812;50.942;3.644;2023-02-12T05:12:27;103821.69;;;6.13;100.00
52949;BME280;38812;50.942;3.644;2023-02-12T05:14:53;103826.38;;;6.20;100.00
52949;BME280;38812;50.942;3.644;2023-02-12T05:17:21;103830.19;;;6.09;100.00
52949;BME280;38812;50.942;3.644;2023-02-12T05:19:47;103825.41;;;5.99;100.00
52949;BME280;38812;50.942;3.644;2023-02-12T05:22:12;103820.66;;;5.90;100.00
52949;BME280;38812;50.942;3.644;2023-02-12T05:24:37;103823.19;;;5.89;100.00
52949;BME280;38812;50.942;3.644;2023-02-12T05:27:03;103826.22;;;5.98;100.00
52949;BME280;38812;50.942;3.644;2023-02-12T05:29:28;103833.09;;;5.96;100.00
52949;BME280;38812;50.942;3.644;2023-02-12T05:31:53;103822.19;;;5.86;100.00
52949;BME280;38812;50.942;3.644;2023-02-12T05:34:19;103818.19;;;5.93;100.00
52949;BME280;38812;50.942;3.644;2023-02-12T05:36:44;103818.03;;;5.90;100.00
52949;BME280;38812;50.942;3.644;2023-02-12T05:39:10;103825.81;;;5.89;100.00
52949;BME280;38812;50.942;3.644;2023-02-12T05:41:35;103814.28;;;6.03;100.00
52949;BME280;38812;50.942;3.644;2023-02-12T05:44:02;103816.69;;;5.98;100.00
52949;BME280;38812;50.942;3.644;2023-02-12T05:46:27;103818.19;;;5.93;100.00
52949;BME280;38812;50.942;3.644;2023-02-12T05:48:53;103830.41;;;5.94;100.00
52949;BME280;38812;50.942;3.644;2023-02-12T05:51:20;103832.94;;;5.93;100.00
52949;BME280;38812;50.942;3.644;2023-02-12T05:53:49;103847.03;;;5.96;100.00
52949;BME280;38812;50.942;3.644;2023-02-12T05:56:23;103836.25;;;5.89;100.00
52949;BME280;38812;50.942;3.644;2023-02-12T05:58:54;103836.25;;;5.89;100.00
52949;BME280;38812;50.942;3.644;2023-02-12T06:01:23;103830.34;;;5.93;100.00
52949;BME280;38812;50.942;3.644;2023-02-12T06:03:49;103836.06;;;5.85;100.00
52949;BME280;38812;50.942;3.644;2023-02-12T06:06:14;103841.16;;;5.82;100.00
52949;BME280;38812;50.942;3.644;2023-02-12T06:08:40;103830.28;;;5.73;100.00
52949;BME280;38812;50.942;3.644;2023-02-12T06:11:08;103824.63;;;5.82;100.00
52949;BME280;38812;50.942;3.644;2023-02-12T06:13:34;103832.22;;;5.77;100.00
52949;BME280;38812;50.942;3.644;2023-02-12T06:16:00;103834.00;;;5.78;100.00
52949;BME280;38812;50.942;3.644;2023-02-12T06:18:26;103835.66;;;5.76;100.00
52949;BME280;38812;50.942;3.644;2023-02-12T06:20:52;103836.47;;;5.75;100.00
52949;BME280;38812;50.942;3.644;2023-02-12T06:23:20;103835.66;;;5.76;100.00
52949;BME280;38812;50.942;3.644;2023-02-12T06:25:47;103835.50;;;5.73;100.00
52949;BME280;38812;50.942;3.644;2023-02-12T06:28:12;103834.75;;;5.76;100.00
52949;BME280;38812;50.942;3.644;2023-02-12T06:30:37;103831.19;;;5.74;100.00
52949;BME280;38812;50.942;3.644;2023-02-12T06:33:03;103833.34;;;5.82;100.00
52949;BME280;38812;50.942;3.644;2023-02-12T06:35:28;103839.41;;;6.01;100.00
52949;BME280;38812;50.942;3.644;2023-02-12T06:37:54;103832.63;;;6.04;100.00
52949;BME280;38812;50.942;3.644;2023-02-12T06:40:19;103842.72;;;6.16;100.00
52949;BME280;38812;50.942;3.644;2023-02-12T06:42:44;103832.00;;;6.10;100.00
52949;BME280;38812;50.942;3.644;2023-02-12T06:45:10;103840.94;;;6.15;100.00
52949;BME280;38812;50.942;3.644;2023-02-12T06:47:35;103831.75;;;6.04;100.00
52949;BME280;38812;50.942;3.644;2023-02-12T06:50:01;103826.22;;;5.98;100.00
52949;BME280;38812;50.942;3.644;2023-02-12T06:52:26;103827.31;;;5.83;100.00
52949;BME280;38812;50.942;3.644;2023-02-12T06:54:52;103850.47;;;5.95;100.00
52949;BME280;38812;50.942;3.644;2023-02-12T06:57:17;103842.50;;;5.92;100.00
52949;BME280;38812;50.942;3.644;2023-02-12T06:59:42;103848.75;;;5.96;100.00
52949;BME280;38812;50.942;3.644;2023-02-12T07:02:10;103855.75;;;5.97;100.00
52949;BME280;38812;50.942;3.644;2023-02-12T07:04:38;103856.66;;;5.97;100.00
52949;BME280;38812;50.942;3.644;2023-02-12T07:07:04;103845.31;;;5.97;100.00
52949;BME280;38812;50.942;3.644;2023-02-12T07:09:30;103853.91;;;6.13;100.00
52949;BME280;38812;50.942;3.644;2023-02-12T07:11:57;103859.47;;;6.02;100.00
52949;BME280;38812;50.942;3.644;2023-02-12T07:14:23;103860.16;;;5.98;100.00
52949;BME280;38812;50.942;3.644;2023-02-12T07:16:48;103866.19;;;5.97;100.00
52949;BME280;38812;50.942;3.644;2023-02-12T07:19:14;103868.53;;;6.10;100.00
52949;BME280;38812;50.942;3.644;2023-02-12T07:21:41;103869.94;;;6.21;100.00
52949;BME280;38812;50.942;3.644;2023-02-12T07:24:06;103883.25;;;6.27;100.00
52949;BME280;38812;50.942;3.644;2023-02-12T07:26:33;103878.03;;;6.27;100.00
52949;BME280;38812;50.942;3.644;2023-02-12T07:28:58;103884.63;;;6.38;100.00
52949;BME280;38812;50.942;3.644;2023-02-12T07:31:23;103890.13;;;6.25;100.00
52949;BME280;38812;50.942;3.644;2023-02-12T07:33:53;103888.88;;;6.17;100.00
52949;BME280;38812;50.942;3.644;2023-02-12T07:36:19;103891.34;;;6.14;100.00
52949;BME280;38812;50.942;3.644;2023-02-12T07:38:45;103889.41;;;6.10;100.00
52949;BME280;38812;50.942;3.644;2023-02-12T07:41:26;103895.75;;;6.15;100.00
52949;BME280;38812;50.942;3.644;2023-02-12T07:44:01;103886.81;;;6.10;100.00
52949;BME280;38812;50.942;3.644;2023-02-12T07:46:31;103889.69;;;6.16;100.00
52949;BME280;38812;50.942;3.644;2023-02-12T07:48:58;103898.63;;;6.21;100.00
52949;BME280;38812;50.942;3.644;2023-02-12T07:51:26;103897.53;;;6.16;100.00
52949;BME280;38812;50.942;3.644;2023-02-12T07:53:52;103895.06;;;6.19;100.00
52949;BME280;38812;50.942;3.644;2023-02-12T07:56:22;103894.91;;;6.16;100.00
52949;BME280;38812;50.942;3.644;2023-02-12T07:58:51;103904.00;;;6.24;100.00
52949;BME280;38812;50.942;3.644;2023-02-12T08:01:25;103912.81;;;6.26;100.00
52949;BME280;38812;50.942;3.644;2023-02-12T08:03:52;103900.56;;;6.25;100.00
52949;BME280;38812;50.942;3.644;2023-02-12T08:06:19;103904.97;;;6.26;100.00
52949;BME280;38812;50.942;3.644;2023-02-12T08:08:46;103897.13;;;6.26;100.00
52949;BME280;38812;50.942;3.644;2023-02-12T08:11:12;103912.03;;;6.29;100.00
52949;BME280;38812;50.942;3.644;2023-02-12T08:13:39;103912.91;;;6.29;100.00
52949;BME280;38812;50.942;3.644;2023-02-12T08:16:08;103908.53;;;6.47;100.00
52949;BME280;38812;50.942;3.644;2023-02-12T08:18:34;103908.53;;;6.47;100.00
52949;BME280;38812;50.942;3.644;2023-02-12T08:21:14;103897.81;;;6.41;100.00
52949;BME280;38812;50.942;3.644;2023-02-12T08:23:40;103903.31;;;6.47;100.00
52949;BME280;38812;50.942;3.644;2023-02-12T08:28:53;103911.34;;;6.52;100.00
52949;BME280;38812;50.942;3.644;2023-02-12T08:31:24;103903.44;;;6.50;100.00
52949;BME280;38812;50.942;3.644;2023-02-12T08:33:51;103900.28;;;6.58;100.00
52949;BME280;38812;50.942;3.644;2023-02-12T08:36:19;103917.81;;;6.60;100.00
52949;BME280;38812;50.942;3.644;2023-02-12T08:38:45;103907.16;;;6.56;100.00
52949;BME280;38812;50.942;3.644;2023-02-12T08:41:14;103906.31;;;6.57;100.00
52949;BME280;38812;50.942;3.644;2023-02-12T08:43:40;103921.84;;;6.73;100.00
52949;BME280;38812;50.942;3.644;2023-02-12T08:46:08;103918.47;;;6.75;100.00
52949;BME280;38812;50.942;3.644;2023-02-12T08:48:34;103927.84;;;6.70;100.00
52949;BME280;38812;50.942;3.644;2023-02-12T08:51:18;103921.72;;;6.70;100.00
52949;BME280;38812;50.942;3.644;2023-02-12T08:53:46;103914.56;;;6.66;100.00
52949;BME280;38812;50.942;3.644;2023-02-12T08:56:13;103914.06;;;6.74;100.00
52949;BME280;38812;50.942;3.644;2023-02-12T08:58:39;103920.59;;;6.84;100.00
52949;BME280;38812;50.942;3.644;2023-02-12T09:01:09;103917.44;;;6.91;100.00
52949;BME280;38812;50.942;3.644;2023-02-12T09:03:35;103921.25;;;6.99;100.00
52949;BME280;38812;50.942;3.644;2023-02-12T09:06:02;103913.72;;;7.07;100.00
52949;BME280;38812;50.942;3.644;2023-02-12T09:08:29;103914.75;;;7.10;100.00
52949;BME280;38812;50.942;3.644;2023-02-12T09:10:54;103913.22;;;7.15;100.00
52949;BME280;38812;50.942;3.644;2023-02-12T09:13:20;103915.38;;;7.26;100.00
52949;BME280;38812;50.942;3.644;2023-02-12T09:15:45;103905.31;;;7.35;100.00
52949;BME280;38812;50.942;3.644;2023-02-12T09:18:12;103910.84;;;7.42;100.00
52949;BME280;38812;50.942;3.644;2023-02-12T09:20:39;103915.94;;;7.39;100.00
52949;BME280;38812;50.942;3.644;2023-02-12T09:23:10;103904.84;;;7.45;100.00
52949;BME280;38812;50.942;3.644;2023-02-12T09:25:40;103906.00;;;7.51;100.00
52949;BME280;38812;50.942;3.644;2023-02-12T09:28:05;103904.91;;;7.46;100.00
52949;BME280;38812;50.942;3.644;2023-02-12T09:30:31;103913.25;;;7.58;100.00
52949;BME280;38812;50.942;3.644;2023-02-12T09:32:56;103913.22;;;7.57;100.00
52949;BME280;38812;50.942;3.644;2023-02-12T09:35:22;103904.41;;;7.55;100.00
52949;BME280;38812;50.942;3.644;2023-02-12T09:37:48;103911.63;;;7.62;100.00
52949;BME280;38812;50.942;3.644;2023-02-12T09:45:59;103913.16;;;7.78;100.00
52949;BME280;38812;50.942;3.644;2023-02-12T09:48:40;103915.03;;;7.82;100.00
52949;BME280;38812;50.942;3.644;2023-02-12T09:51:08;103912.28;;;7.77;100.00
52949;BME280;38812;50.942;3.644;2023-02-12T09:53:38;103913.75;;;7.71;100.00
52949;BME280;38812;50.942;3.644;2023-02-12T09:56:16;103909.66;;;7.77;100.00
52949;BME280;38812;50.942;3.644;2023-02-12T09:58:50;103900.47;;;7.88;100.00
52949;BME280;38812;50.942;3.644;2023-02-12T10:01:18;103914.97;;;8.03;100.00
52949;BME280;38812;50.942;3.644;2023-02-12T10:03:45;103921.28;;;8.08;100.00
52949;BME280;38812;50.942;3.644;2023-02-12T10:12:29;103911.47;;;8.02;100.00
52949;BME280;38812;50.942;3.644;2023-02-12T10:17:57;103914.25;;;8.07;100.00
52949;BME280;38812;50.942;3.644;2023-02-12T10:23:26;103915.47;;;8.15;100.00
52949;BME280;38812;50.942;3.644;2023-02-12T10:26:00;103906.00;;;8.18;100.00
52949;BME280;38812;50.942;3.644;2023-02-12T10:28:34;103907.72;;;8.18;100.00
52949;BME280;38812;50.942;3.644;2023-02-12T10:33:46;103913.56;;;8.11;100.00
52949;BME280;38812;50.942;3.644;2023-02-12T10:36:56;103910.94;;;8.33;100.00
52949;BME280;38812;50.942;3.644;2023-02-12T10:39:23;103912.84;;;8.15;100.00
52949;BME280;38812;50.942;3.644;2023-02-12T10:42:22;103915.53;;;8.16;100.00
52949;BME280;38812;50.942;3.644;2023-02-12T10:44:50;103919.16;;;8.20;100.00
52949;BME280;38812;50.942;3.644;2023-02-12T10:47:19;103903.03;;;8.09;100.00
52949;BME280;38812;50.942;3.644;2023-02-12T10:49:50;103915.91;;;8.27;100.00
52949;BME280;38812;50.942;3.644;2023-02-12T10:52:42;103912.56;;;8.31;100.00
52949;BME280;38812;50.942;3.644;2023-02-12T10:55:29;103908.69;;;8.20;100.00
52949;BME280;38812;50.942;3.644;2023-02-12T10:57:56;103894.38;;;8.12;100.00
52949;BME280;38812;50.942;3.644;2023-02-12T11:00:32;103905.53;;;8.30;100.00
52949;BME280;38812;50.942;3.644;2023-02-12T11:03:01;103907.72;;;8.40;100.00
52949;BME280;38812;50.942;3.644;2023-02-12T11:05:29;103915.06;;;8.50;100.00
52949;BME280;38812;50.942;3.644;2023-02-12T11:07:55;103901.22;;;8.54;100.00
52949;BME280;38812;50.942;3.644;2023-02-12T11:10:39;103898.31;;;8.71;100.00
52949;BME280;38812;50.942;3.644;2023-02-12T11:13:22;103893.69;;;8.89;100.00
52949;BME280;38812;50.942;3.644;2023-02-12T11:15:48;103895.59;;;8.93;100.00
52949;BME280;38812;50.942;3.644;2023-02-12T11:18:22;103893.19;;;8.74;100.00
52949;BME280;38812;50.942;3.644;2023-02-12T11:23:39;103891.09;;;8.64;100.00
52949;BME280;38812;50.942;3.644;2023-02-12T11:29:20;103884.81;;;8.84;100.00
52949;BME280;38812;50.942;3.644;2023-02-12T11:32:03;103883.22;;;8.89;100.00
52949;BME280;38812;50.942;3.644;2023-02-12T11:34:29;103887.53;;;8.87;100.00
52949;BME280;38812;50.942;3.644;2023-02-12T11:36:55;103891.25;;;8.93;100.00
52949;BME280;38812;50.942;3.644;2023-02-12T11:39:34;103886.00;;;8.93;100.00
52949;BME280;38812;50.942;3.644;2023-02-12T11:44:33;103878.91;;;9.16;100.00
52949;BME280;38812;50.942;3.644;2023-02-12T11:47:15;103864.16;;;9.20;100.00
52949;BME280;38812;50.942;3.644;2023-02-12T11:49:50;103863.63;;;9.03;100.00
52949;BME280;38812;50.942;3.644;2023-02-12T11:52:22;103869.34;;;9.18;100.00
52949;BME280;38812;50.942;3.644;2023-02-12T11:54:50;103868.69;;;8.99;100.00
52949;BME280;38812;50.942;3.644;2023-02-12T11:57:46;103866.81;;;8.94;100.00
52949;BME280;38812;50.942;3.644;2023-02-12T12:02:59;103868.53;;;8.94;100.00
52949;BME280;38812;50.942;3.644;2023-02-12T12:05:31;103860.31;;;9.09;100.00
52949;BME280;38812;50.942;3.644;2023-02-12T12:08:00;103857.63;;;9.07;100.00
52949;BME280;38812;50.942;3.644;2023-02-12T12:10:37;103845.16;;;9.00;100.00
52949;BME280;38812;50.942;3.644;2023-02-12T12:13:12;103854.06;;;9.05;100.00
52949;BME280;38812;50.942;3.644;2023-02-12T12:15:43;103857.91;;;9.16;100.00
52949;BME280;38812;50.942;3.644;2023-02-12T12:18:46;103843.47;;;9.29;100.00
52949;BME280;38812;50.942;3.644;2023-02-12T12:24:56;103838.66;;;9.16;100.00
52949;BME280;38812;50.942;3.644;2023-02-12T12:27:34;103837.97;;;9.21;100.00
52949;BME280;38812;50.942;3.644;2023-02-12T12:38:43;103816.41;;;9.32;100.00
52949;BME280;38812;50.942;3.644;2023-02-12T12:43:53;103809.47;;;9.05;100.00
52949;BME280;38812;50.942;3.644;2023-02-12T12:49:16;103806.66;;;9.26;100.00
52949;BME280;38812;50.942;3.644;2023-02-12T13:03:27;103799.19;;;9.40;100.00
52949;BME280;38812;50.942;3.644;2023-02-12T13:11:16;103787.22;;;9.48;100.00
52949;BME280;38812;50.942;3.644;2023-02-12T13:13:49;103787.56;;;9.60;100.00
52949;BME280;38812;50.942;3.644;2023-02-12T13:16:29;103778.41;;;9.46;100.00
52949;BME280;38812;50.942;3.644;2023-02-12T13:21:46;103785.47;;;9.48;100.00
52949;BME280;38812;50.942;3.644;2023-02-12T13:24:28;103784.25;;;9.37;100.00
52949;BME280;38812;50.942;3.644;2023-02-12T13:26:59;103764.25;;;9.41;100.00
52949;BME280;38812;50.942;3.644;2023-02-12T13:29:34;103772.13;;;9.41;100.00
52949;BME280;38812;50.942;3.644;2023-02-12T13:32:10;103759.00;;;9.41;100.00
52949;BME280;38812;50.942;3.644;2023-02-12T13:34:37;103755.78;;;9.21;100.00
52949;BME280;38812;50.942;3.644;2023-02-12T13:37:05;103764.94;;;9.35;100.00
52949;BME280;38812;50.942;3.644;2023-02-12T13:39:37;103764.63;;;9.24;100.00
52949;BME280;38812;50.942;3.644;2023-02-12T13:42:11;103765.06;;;9.11;100.00
52949;BME280;38812;50.942;3.644;2023-02-12T13:50:55;103758.34;;;9.19;100.00
52949;BME280;38812;50.942;3.644;2023-02-12T13:58:54;103754.09;;;8.96;100.00
52949;BME280;38812;50.942;3.644;2023-02-12T14:04:26;103754.72;;;8.87;100.00
52949;BME280;38812;50.942;3.644;2023-02-12T14:09:42;103740.25;;;9.00;100.00
52949;BME280;38812;50.942;3.644;2023-02-12T14:14:51;103741.03;;;9.24;100.00
52949;BME280;38812;50.942;3.644;2023-02-12T14:20:24;103742.97;;;9.32;100.00
52949;BME280;38812;50.942;3.644;2023-02-12T14:35:29;103732.81;;;9.14;100.00
52949;BME280;38812;50.942;3.644;2023-02-12T14:38:00;103732.53;;;9.05;100.00
52949;BME280;38812;50.942;3.644;2023-02-12T14:42:58;103729.56;;;8.94;100.00
52949;BME280;38812;50.942;3.644;2023-02-12T14:45:34;103732.88;;;8.87;100.00
52949;BME280;38812;50.942;3.644;2023-02-12T14:48:01;103728.53;;;8.89;100.00
52949;BME280;38812;50.942;3.644;2023-02-12T14:50:42;103715.53;;;8.92;100.00
52949;BME280;38812;50.942;3.644;2023-02-12T14:53:22;103721.66;;;8.92;100.00
52949;BME280;38812;50.942;3.644;2023-02-12T14:55:50;103720.66;;;8.87;100.00
52949;BME280;38812;50.942;3.644;2023-02-12T14:58:19;103704.88;;;8.86;100.00
52949;BME280;38812;50.942;3.644;2023-02-12T15:00:48;103714.34;;;8.82;100.00
52949;BME280;38812;50.942;3.644;2023-02-12T15:03:22;103713.38;;;8.79;100.00
52949;BME280;38812;50.942;3.644;2023-02-12T15:06:11;103708.84;;;8.75;100.00
52949;BME280;38812;50.942;3.644;2023-02-12T15:08:43;103707.75;;;8.68;100.00
52949;BME280;38812;50.942;3.644;2023-02-12T15:13:51;103694.88;;;8.74;100.00
52949;BME280;38812;50.942;3.644;2023-02-12T15:16:26;103713.16;;;8.73;100.00
52949;BME280;38812;50.942;3.644;2023-02-12T15:18:58;103708.06;;;8.77;100.00
52949;BME280;38812;50.942;3.644;2023-02-12T15:21:29;103712.72;;;8.86;100.00
52949;BME280;38812;50.942;3.644;2023-02-12T15:24:02;103712.00;;;8.63;100.00
52949;BME280;38812;50.942;3.644;2023-02-12T15:26:32;103700.41;;;8.56;100.00
52949;BME280;38812;50.942;3.644;2023-02-12T15:28:58;103703.03;;;8.56;100.00
52949;BME280;38812;50.942;3.644;2023-02-12T15:31:26;103707.13;;;8.48;100.00
52949;BME280;38812;50.942;3.644;2023-02-12T15:33:55;103708.84;;;8.48;100.00
52949;BME280;38812;50.942;3.644;2023-02-12T15:36:26;103710.50;;;8.44;100.00
52949;BME280;38812;50.942;3.644;2023-02-12T15:38:55;103705.25;;;8.44;100.00